sensor_id;sensor_type;location;lat;lon;timestamp;P1;durP1;ratioP1;P2;durP2;ratioP2
4939;SDS011;2485;49.326;7.214;2023-04-01T00:25:48;2.73;;;1.20;;
4939;SDS011;2485;49.326;7.214;2023-04-01T00:43:40;5.00;;;1.53;;
4939;SDS011;2485;49.326;7.214;2023-04-01T00:52:35;8.00;;;1.50;;
4939;SDS011;2485;49.326;7.214;2023-04-01T00:55:14;7.73;;;1.50;;
4939;SDS011;2485;49.326;7.214;2023-04-01T01:01:00;3.90;;;1.10;;
4939;SDS011;2485;49.326;7.214;2023-04-01T01:04:00;2.23;;;1.10;;
4939;SDS011;2485;49.326;7.214;2023-04-01T04:10:42;1.43;;;0.90;;
4939;SDS011;2485;49.326;7.214;2023-04-01T04:13:40;6.47;;;1.93;;
4939;SDS011;2485;49.326;7.214;2023-04-01T04:24:28;1.93;;;1.33;;
4939;SDS011;2485;49.326;7.214;2023-04-01T04:47:58;6.43;;;1.43;;
4939;SDS011;2485;49.326;7.214;2023-04-01T04:56:50;2.90;;;0.93;;
4939;SDS011;2485;49.326;7.214;2023-04-01T05:08:57;3.80;;;0.90;;
4939;SDS011;2485;49.326;7.214;2023-04-01T05:11:38;5.23;;;1.50;;
4939;SDS011;2485;49.326;7.214;2023-04-01T05:20:58;3.53;;;1.20;;
4939;SDS011;2485;49.326;7.214;2023-04-01T05:23:39;2.80;;;1.13;;
4939;SDS011;2485;49.326;7.214;2023-04-01T05:32:42;3.37;;;1.00;;
4939;SDS011;2485;49.326;7.214;2023-04-01T05:35:26;4.03;;;1.30;;
4939;SDS011;2485;49.326;7.214;2023-04-01T05:52:54;5.10;;;0.90;;
4939;SDS011;2485;49.326;7.214;2023-04-01T05:58:46;4.40;;;1.30;;
4939;SDS011;2485;49.326;7.214;2023-04-01T06:01:43;4.80;;;1.30;;
4939;SDS011;2485;49.326;7.214;2023-04-01T06:04:17;3.83;;;1.10;;
4939;SDS011;2485;49.326;7.214;2023-04-01T07:02:54;3.37;;;1.03;;
4939;SDS011;2485;49.326;7.214;2023-04-01T07:05:31;3.33;;;1.10;;
4939;SDS011;2485;49.326;7.214;2023-04-01T07:16:37;6.90;;;3.63;;
4939;SDS011;2485;49.326;7.214;2023-04-01T07:19:14;2.50;;;1.70;;
4939;SDS011;2485;49.326;7.214;2023-04-01T07:21:47;2.70;;;1.03;;
4939;SDS011;2485;49.326;7.214;2023-04-01T07:24:25;1.93;;;0.80;;
4939;SDS011;2485;49.326;7.214;2023-04-01T07:26:57;2.43;;;1.20;;
4939;SDS011;2485;49.326;7.214;2023-04-01T07:29:32;3.47;;;1.10;;
4939;SDS011;2485;49.326;7.214;2023-04-01T07:35:13;6.53;;;0.90;;
4939;SDS011;2485;49.326;7.214;2023-04-01T07:37:49;1.70;;;1.00;;
4939;SDS011;2485;49.326;7.214;2023-04-01T07:40:22;3.17;;;1.40;;
4939;SDS011;2485;49.326;7.214;2023-04-01T07:43:03;6.63;;;1.00;;
4939;SDS011;2485;49.326;7.214;2023-04-01T07:45:35;1.33;;;1.23;;
4939;SDS011;2485;49.326;7.214;2023-04-01T07:48:19;2.33;;;1.50;;
4939;SDS011;2485;49.326;7.214;2023-04-01T07:50:58;2.03;;;1.27;;
4939;SDS011;2485;49.326;7.214;2023-04-01T07:53:49;1.77;;;1.10;;
4939;SDS011;2485;49.326;7.214;2023-04-01T07:59:58;1.00;;;0.80;;
4939;SDS011;2485;49.326;7.214;2023-04-01T08:03:14;3.23;;;0.80;;
4939;SDS011;2485;49.326;7.214;2023-04-01T08:05:40;2.40;;;1.10;;
4939;SDS011;2485;49.326;7.214;2023-04-01T08:08:30;1.73;;;1.37;;
4939;SDS011;2485;49.326;7.214;2023-04-01T08:11:13;1.63;;;0.90;;
4939;SDS011;2485;49.326;7.214;2023-04-01T08:14:09;3.97;;;1.10;;
4939;SDS011;2485;49.326;7.214;2023-04-01T08:16:51;3.93;;;0.90;;
4939;SDS011;2485;49.326;7.214;2023-04-01T08:25:33;5.00;;;0.83;;
4939;SDS011;2485;49.326;7.214;2023-04-01T08:28:32;1.83;;;0.90;;
4939;SDS011;2485;49.326;7.214;2023-04-01T08:31:20;0.70;;;0.63;;
4939;SDS011;2485;49.326;7.214;2023-04-01T08:34:02;1.53;;;1.40;;
4939;SDS011;2485;49.326;7.214;2023-04-01T08:36:50;1.83;;;0.90;;
4939;SDS011;2485;49.326;7.214;2023-04-01T08:42:57;0.70;;;0.60;;
4939;SDS011;2485;49.326;7.214;2023-04-01T08:46:02;1.33;;;0.73;;
4939;SDS011;2485;49.326;7.214;2023-04-01T08:51:53;0.77;;;0.70;;
4939;SDS011;2485;49.326;7.214;2023-04-01T09:19:17;3.37;;;0.80;;
4939;SDS011;2485;49.326;7.214;2023-04-01T09:28:19;0.80;;;0.80;;
4939;SDS011;2485;49.326;7.214;2023-04-01T09:37:07;1.00;;;0.90;;
4939;SDS011;2485;49.326;7.214;2023-04-01T09:40:03;0.70;;;0.70;;
4939;SDS011;2485;49.326;7.214;2023-04-01T09:43:00;1.30;;;1.20;;
4939;SDS011;2485;49.326;7.214;2023-04-01T09:45:41;1.67;;;1.00;;
4939;SDS011;2485;49.326;7.214;2023-04-01T09:48:16;1.00;;;0.83;;
4939;SDS011;2485;49.326;7.214;2023-04-01T09:50:52;1.30;;;1.10;;
4939;SDS011;2485;49.326;7.214;2023-04-01T09:53:34;1.13;;;0.70;;
4939;SDS011;2485;49.326;7.214;2023-04-01T10:04:54;1.30;;;0.80;;
4939;SDS011;2485;49.326;7.214;2023-04-01T10:08:06;1.00;;;0.90;;
4939;SDS011;2485;49.326;7.214;2023-04-01T10:22:55;1.17;;;0.90;;
4939;SDS011;2485;49.326;7.214;2023-04-01T10:37:47;1.00;;;0.90;;
4939;SDS011;2485;49.326;7.214;2023-04-01T11:31:37;1.00;;;0.80;;
4939;SDS011;2485;49.326;7.214;2023-04-01T11:34:20;2.40;;;0.70;;
4939;SDS011;2485;49.326;7.214;2023-04-01T11:40:09;1.93;;;1.00;;
4939;SDS011;2485;49.326;7.214;2023-04-01T11:42:49;1.83;;;1.00;;
4939;SDS011;2485;49.326;7.214;2023-04-01T12:02:42;3.03;;;1.10;;
4939;SDS011;2485;49.326;7.214;2023-04-01T12:08:58;2.87;;;1.00;;
4939;SDS011;2485;49.326;7.214;2023-04-01T12:11:43;1.47;;;0.80;;
4939;SDS011;2485;49.326;7.214;2023-04-01T12:28:54;1.87;;;0.90;;
4939;SDS011;2485;49.326;7.214;2023-04-01T13:21:58;1.47;;;0.90;;
4939;SDS011;2485;49.326;7.214;2023-04-01T13:24:54;2.10;;;1.00;;
4939;SDS011;2485;49.326;7.214;2023-04-01T13:30:30;3.23;;;1.17;;
4939;SDS011;2485;49.326;7.214;2023-04-01T13:33:04;2.27;;;0.83;;
4939;SDS011;2485;49.326;7.214;2023-04-01T13:36:23;1.43;;;1.03;;
4939;SDS011;2485;49.326;7.214;2023-04-01T13:48:52;1.20;;;1.00;;
4939;SDS011;2485;49.326;7.214;2023-04-01T14:00:30;2.10;;;0.80;;
4939;SDS011;2485;49.326;7.214;2023-04-01T14:48:28;1.00;;;0.90;;
4939;SDS011;2485;49.326;7.214;2023-04-01T14:51:28;2.77;;;1.40;;
4939;SDS011;2485;49.326;7.214;2023-04-01T15:27:27;4.80;;;1.50;;
4939;SDS011;2485;49.326;7.214;2023-04-01T15:35:49;6.77;;;1.80;;
4939;SDS011;2485;49.326;7.214;2023-04-01T15:39:14;2.10;;;1.50;;
4939;SDS011;2485;49.326;7.214;2023-04-01T15:44:46;1.37;;;1.27;;
4939;SDS011;2485;49.326;7.214;2023-04-01T15:53:21;8.00;;;2.93;;
4939;SDS011;2485;49.326;7.214;2023-04-01T16:02:20;2.63;;;1.63;;
4939;SDS011;2485;49.326;7.214;2023-04-01T16:17:08;1.63;;;1.23;;
4939;SDS011;2485;49.326;7.214;2023-04-01T16:28:27;2.10;;;1.30;;
4939;SDS011;2485;49.326;7.214;2023-04-01T16:39:52;1.00;;;0.90;;
4939;SDS011;2485;49.326;7.214;2023-04-01T17:19:38;3.73;;;2.40;;
4939;SDS011;2485;49.326;7.214;2023-04-01T17:25:37;5.30;;;1.30;;
4939;SDS011;2485;49.326;7.214;2023-04-01T17:40:43;2.73;;;2.40;;
4939;SDS011;2485;49.326;7.214;2023-04-01T17:46:29;3.67;;;1.73;;
4939;SDS011;2485;49.326;7.214;2023-04-01T18:04:04;2.20;;;1.20;;
4939;SDS011;2485;49.326;7.214;2023-04-01T18:06:33;7.57;;;2.07;;
4939;SDS011;2485;49.326;7.214;2023-04-01T18:09:03;1.53;;;1.10;;
4939;SDS011;2485;49.326;7.214;2023-04-01T18:11:34;2.50;;;1.00;;
4939;SDS011;2485;49.326;7.214;2023-04-01T18:14:17;2.37;;;1.57;;
4939;SDS011;2485;49.326;7.214;2023-04-01T18:17:08;1.93;;;1.20;;
4939;SDS011;2485;49.326;7.214;2023-04-01T18:19:42;2.07;;;1.80;;
4939;SDS011;2485;49.326;7.214;2023-04-01T18:22:15;2.70;;;1.47;;
4939;SDS011;2485;49.326;7.214;2023-04-01T18:24:43;3.80;;;1.23;;
4939;SDS011;2485;49.326;7.214;2023-04-01T18:27:14;2.10;;;1.30;;
4939;SDS011;2485;49.326;7.214;2023-04-01T18:29:41;1.97;;;1.30;;
4939;SDS011;2485;49.326;7.214;2023-04-01T18:32:15;2.60;;;1.30;;
4939;SDS011;2485;49.326;7.214;2023-04-01T18:34:51;2.90;;;1.37;;
4939;SDS011;2485;49.326;7.214;2023-04-01T18:37:19;4.10;;;1.60;;
4939;SDS011;2485;49.326;7.214;2023-04-01T18:39:49;1.70;;;1.60;;
4939;SDS011;2485;49.326;7.214;2023-04-01T18:42:19;3.70;;;2.00;;
4939;SDS011;2485;49.326;7.214;2023-04-01T18:44:50;1.43;;;1.10;;
4939;SDS011;2485;49.326;7.214;2023-04-01T18:47:22;2.90;;;1.20;;
4939;SDS011;2485;49.326;7.214;2023-04-01T18:49:53;2.40;;;1.90;;
4939;SDS011;2485;49.326;7.214;2023-04-01T18:52:21;1.90;;;1.30;;
4939;SDS011;2485;49.326;7.214;2023-04-01T18:55:14;1.67;;;1.57;;
4939;SDS011;2485;49.326;7.214;2023-04-01T18:57:38;2.40;;;1.40;;
4939;SDS011;2485;49.326;7.214;2023-04-01T19:00:11;1.30;;;1.20;;
4939;SDS011;2485;49.326;7.214;2023-04-01T19:02:40;1.60;;;1.27;;
4939;SDS011;2485;49.326;7.214;2023-04-01T19:05:11;2.13;;;1.23;;
4939;SDS011;2485;49.326;7.214;2023-04-01T19:07:42;1.70;;;1.20;;
4939;SDS011;2485;49.326;7.214;2023-04-01T19:10:14;3.50;;;1.60;;
4939;SDS011;2485;49.326;7.214;2023-04-01T19:12:41;4.83;;;1.23;;
4939;SDS011;2485;49.326;7.214;2023-04-01T19:15:19;1.93;;;1.63;;
4939;SDS011;2485;49.326;7.214;2023-04-01T19:17:51;3.17;;;2.50;;
4939;SDS011;2485;49.326;7.214;2023-04-01T19:20:22;2.70;;;1.90;;
4939;SDS011;2485;49.326;7.214;2023-04-01T19:25:37;2.03;;;1.30;;
4939;SDS011;2485;49.326;7.214;2023-04-01T19:28:07;4.50;;;1.87;;
4939;SDS011;2485;49.326;7.214;2023-04-01T19:30:42;7.43;;;1.87;;
4939;SDS011;2485;49.326;7.214;2023-04-01T19:33:17;3.90;;;1.63;;
4939;SDS011;2485;49.326;7.214;2023-04-01T19:35:47;5.23;;;1.80;;
4939;SDS011;2485;49.326;7.214;2023-04-01T19:38:15;2.20;;;1.37;;
4939;SDS011;2485;49.326;7.214;2023-04-01T19:40:48;1.90;;;1.60;;
4939;SDS011;2485;49.326;7.214;2023-04-01T19:43:22;6.70;;;2.13;;
4939;SDS011;2485;49.326;7.214;2023-04-01T19:45:59;8.60;;;2.83;;
4939;SDS011;2485;49.326;7.214;2023-04-01T19:48:33;3.00;;;2.37;;
4939;SDS011;2485;49.326;7.214;2023-04-01T19:51:07;1.53;;;1.43;;
4939;SDS011;2485;49.326;7.214;2023-04-01T19:53:36;3.20;;;2.17;;
4939;SDS011;2485;49.326;7.214;2023-04-01T19:56:06;2.43;;;1.47;;
4939;SDS011;2485;49.326;7.214;2023-04-01T19:58:35;3.60;;;1.87;;
4939;SDS011;2485;49.326;7.214;2023-04-01T20:01:03;4.40;;;2.20;;
4939;SDS011;2485;49.326;7.214;2023-04-01T20:03:33;5.20;;;1.90;;
4939;SDS011;2485;49.326;7.214;2023-04-01T20:06:07;2.70;;;1.90;;
4939;SDS011;2485;49.326;7.214;2023-04-01T20:08:37;5.07;;;2.43;;
4939;SDS011;2485;49.326;7.214;2023-04-01T20:11:08;2.87;;;1.70;;
4939;SDS011;2485;49.326;7.214;2023-04-01T20:13:41;1.60;;;1.50;;
4939;SDS011;2485;49.326;7.214;2023-04-01T20:16:11;5.27;;;1.80;;
4939;SDS011;2485;49.326;7.214;2023-04-01T20:18:39;3.50;;;1.70;;
4939;SDS011;2485;49.326;7.214;2023-04-01T20:21:20;5.80;;;2.37;;
4939;SDS011;2485;49.326;7.214;2023-04-01T20:23:52;4.67;;;2.20;;
4939;SDS011;2485;49.326;7.214;2023-04-01T20:26:21;2.73;;;2.33;;
4939;SDS011;2485;49.326;7.214;2023-04-01T20:28:56;4.37;;;1.97;;
4939;SDS011;2485;49.326;7.214;2023-04-01T20:31:27;6.20;;;2.60;;
4939;SDS011;2485;49.326;7.214;2023-04-01T20:39:47;3.00;;;2.00;;
4939;SDS011;2485;49.326;7.214;2023-04-01T20:42:29;2.83;;;1.93;;
4939;SDS011;2485;49.326;7.214;2023-04-01T20:47:45;3.57;;;1.80;;
4939;SDS011;2485;49.326;7.214;2023-04-01T20:50:18;7.07;;;2.27;;
4939;SDS011;2485;49.326;7.214;2023-04-01T20:52:47;2.80;;;1.93;;
4939;SDS011;2485;49.326;7.214;2023-04-01T20:55:23;3.47;;;1.77;;
4939;SDS011;2485;49.326;7.214;2023-04-01T20:57:54;3.20;;;1.63;;
4939;SDS011;2485;49.326;7.214;2023-04-01T21:00:26;3.17;;;2.10;;
4939;SDS011;2485;49.326;7.214;2023-04-01T21:02:59;1.97;;;1.60;;
4939;SDS011;2485;49.326;7.214;2023-04-01T21:08:11;7.90;;;2.20;;
4939;SDS011;2485;49.326;7.214;2023-04-01T21:10:43;5.70;;;2.70;;
4939;SDS011;2485;49.326;7.214;2023-04-01T21:13:14;3.53;;;1.73;;
4939;SDS011;2485;49.326;7.214;2023-04-01T21:15:53;3.13;;;2.00;;
4939;SDS011;2485;49.326;7.214;2023-04-01T21:18:24;2.70;;;2.23;;
4939;SDS011;2485;49.326;7.214;2023-04-01T21:21:01;4.00;;;2.33;;
4939;SDS011;2485;49.326;7.214;2023-04-01T21:26:24;3.03;;;1.43;;
4939;SDS011;2485;49.326;7.214;2023-04-01T21:29:11;3.47;;;2.00;;
4939;SDS011;2485;49.326;7.214;2023-04-01T21:31:46;3.10;;;1.77;;
4939;SDS011;2485;49.326;7.214;2023-04-01T21:34:28;2.53;;;1.63;;
4939;SDS011;2485;49.326;7.214;2023-04-01T21:37:02;3.70;;;1.67;;
4939;SDS011;2485;49.326;7.214;2023-04-01T21:39:37;7.13;;;2.27;;
4939;SDS011;2485;49.326;7.214;2023-04-01T21:42:16;2.70;;;1.93;;
4939;SDS011;2485;49.326;7.214;2023-04-01T21:50:14;3.30;;;2.33;;
4939;SDS011;2485;49.326;7.214;2023-04-01T21:52:49;6.43;;;2.20;;
4939;SDS011;2485;49.326;7.214;2023-04-01T22:00:48;3.07;;;1.90;;
4939;SDS011;2485;49.326;7.214;2023-04-01T22:03:29;5.47;;;2.77;;
4939;SDS011;2485;49.326;7.214;2023-04-01T22:06:03;5.97;;;2.50;;
4939;SDS011;2485;49.326;7.214;2023-04-01T22:08:35;4.37;;;2.50;;
4939;SDS011;2485;49.326;7.214;2023-04-01T22:11:07;3.40;;;2.33;;
4939;SDS011;2485;49.326;7.214;2023-04-01T22:13:35;4.13;;;2.50;;
4939;SDS011;2485;49.326;7.214;2023-04-01T22:16:08;2.70;;;2.40;;
4939;SDS011;2485;49.326;7.214;2023-04-01T22:18:38;3.10;;;2.27;;
4939;SDS011;2485;49.326;7.214;2023-04-01T22:21:09;5.93;;;2.60;;
4939;SDS011;2485;49.326;7.214;2023-04-01T22:23:39;6.60;;;3.03;;
4939;SDS011;2485;49.326;7.214;2023-04-01T22:26:09;3.03;;;2.13;;
4939;SDS011;2485;49.326;7.214;2023-04-01T22:28:38;4.90;;;2.43;;
4939;SDS011;2485;49.326;7.214;2023-04-01T22:31:08;3.83;;;2.50;;
4939;SDS011;2485;49.326;7.214;2023-04-01T22:33:38;7.27;;;3.33;;
4939;SDS011;2485;49.326;7.214;2023-04-01T22:36:10;5.57;;;2.80;;
4939;SDS011;2485;49.326;7.214;2023-04-01T22:38:42;5.63;;;2.43;;
4939;SDS011;2485;49.326;7.214;2023-04-01T22:41:13;7.83;;;2.97;;
4939;SDS011;2485;49.326;7.214;2023-04-01T22:43:44;9.03;;;2.70;;
4939;SDS011;2485;49.326;7.214;2023-04-01T22:46:26;5.97;;;2.97;;
4939;SDS011;2485;49.326;7.214;2023-04-01T22:48:57;5.73;;;2.43;;
4939;SDS011;2485;49.326;7.214;2023-04-01T22:51:31;2.77;;;2.00;;
4939;SDS011;2485;49.326;7.214;2023-04-01T22:53:59;4.37;;;2.50;;
4939;SDS011;2485;49.326;7.214;2023-04-01T22:56:28;10.00;;;2.70;;
4939;SDS011;2485;49.326;7.214;2023-04-01T22:58:59;3.70;;;2.63;;
4939;SDS011;2485;49.326;7.214;2023-04-01T23:01:30;9.07;;;3.23;;
4939;SDS011;2485;49.326;7.214;2023-04-01T23:03:59;4.77;;;2.60;;
4939;SDS011;2485;49.326;7.214;2023-04-01T23:06:26;3.83;;;2.60;;
4939;SDS011;2485;49.326;7.214;2023-04-01T23:11:40;6.53;;;2.70;;
4939;SDS011;2485;49.326;7.214;2023-04-01T23:14:18;3.10;;;2.23;;
4939;SDS011;2485;49.326;7.214;2023-04-01T23:16:51;2.93;;;2.30;;
4939;SDS011;2485;49.326;7.214;2023-04-01T23:19:21;4.20;;;2.40;;
4939;SDS011;2485;49.326;7.214;2023-04-01T23:21:50;4.70;;;2.50;;
4939;SDS011;2485;49.326;7.214;2023-04-01T23:24:19;5.20;;;2.40;;
4939;SDS011;2485;49.326;7.214;2023-04-01T23:26:49;2.70;;;2.30;;
4939;SDS011;2485;49.326;7.214;2023-04-01T23:29:17;5.80;;;2.67;;
4939;SDS011;2485;49.326;7.214;2023-04-01T23:31:45;4.43;;;3.27;;
4939;SDS011;2485;49.326;7.214;2023-04-01T23:34:26;7.80;;;3.00;;
4939;SDS011;2485;49.326;7.214;2023-04-01T23:36:53;6.30;;;3.43;;
4939;SDS011;2485;49.326;7.214;2023-04-01T23:39:22;3.17;;;2.70;;
4939;SDS011;2485;49.326;7.214;2023-04-01T23:41:50;6.27;;;3.10;;
4939;SDS011;2485;49.326;7.214;2023-04-01T23:44:17;7.40;;;3.00;;
4939;SDS011;2485;49.326;7.214;2023-04-01T23:46:44;6.70;;;2.90;;
4939;SDS011;2485;49.326;7.214;2023-04-01T23:49:12;5.07;;;3.40;;
4939;SDS011;2485;49.326;7.214;2023-04-01T23:51:49;4.60;;;3.07;;
4939;SDS011;2485;49.326;7.214;2023-04-01T23:54:17;4.93;;;2.50;;
4939;SDS011;2485;49.326;7.214;2023-04-01T23:56:45;4.40;;;2.77;;
4939;SDS011;2485;49.326;7.214;2023-04-01T23:59:14;5.17;;;3.20;;
